Time;durP1;ratioP1;P1;durP2;ratioP2;P2;SDS_P1;SDS_P2;PMS_P1;PMS_P2;Temp;Humidity;BMP_temperature;BMP_pressure;BME280_temperature;BME280_humidity;BME280_pressure;Samples;Min_cycle;Max_cycle;Signal;HPM_P1;HPM_P2
2021/12/03 00:01:09;;;;;;;12.07;2.22;;;;;;;5.80;70.86;100891.34;7390135;19;20030;-69
2021/12/03 00:03:39;;;;;;;11.95;1.98;;;;;;;5.78;70.60;100893.28;7387564;19;20003;-70
2021/12/03 00:06:10;;;;;;;10.27;1.85;;;;;;;5.78;71.29;100886.28;7389632;19;20010;-67
2021/12/03 00:08:38;;;;;;;4.80;1.85;;;;;;;5.74;70.81;100886.63;7393050;19;20022;-68
2021/12/03 00:11:05;;;;;;;11.52;2.95;;;;;;;5.73;70.64;100891.03;7391962;19;20018;-68
2021/12/03 00:13:33;;;;;;;7.45;2.95;;;;;;;5.73;71.05;100885.81;7388638;19;20007;-67
2021/12/03 00:16:03;;;;;;;10.07;2.83;;;;;;;5.71;71.23;100877.25;7393823;19;20007;-69
2021/12/03 00:18:32;;;;;;;13.15;2.97;;;;;;;5.74;72.01;100877.00;7393718;19;20514;-67
2021/12/03 00:21:08;;;;;;;9.48;2.53;;;;;;;5.77;75.17;100868.09;7392260;19;20011;-67
2021/12/03 00:23:35;;;;;;;9.63;2.67;;;;;;;5.77;71.67;100853.28;7393868;19;20015;-69
2021/12/03 00:26:05;;;;;;;9.73;1.52;;;;;;;5.77;71.33;100852.44;7393243;19;20014;-69
2021/12/03 00:28:34;;;;;;;10.25;3.03;;;;;;;5.75;69.51;100851.72;7392197;19;20114;-68
2021/12/03 00:31:02;;;;;;;6.90;1.75;;;;;;;5.76;71.69;100846.41;7393643;19;20021;-69
2021/12/03 00:33:31;;;;;;;13.90;2.20;;;;;;;5.74;71.62;100847.47;7388448;19;20035;-68
2021/12/03 00:36:03;;;;;;;9.75;4.75;;;;;;;5.67;71.37;100841.06;7389983;19;20383;-67
2021/12/03 00:38:35;;;;;;;12.77;3.92;;;;;;;5.67;70.07;100841.91;7391013;19;20502;-67
2021/12/03 00:41:41;;;;;;;10.52;1.88;;;;;;;5.66;70.51;100839.41;7387982;19;20007;-68
2021/12/03 00:44:23;;;;;;;5.65;2.15;;;;;;;5.68;70.78;100835.75;7388435;19;20044;-67
2021/12/03 00:46:50;;;;;;;4.93;1.35;;;;;;;5.75;74.58;100823.84;7390095;19;20015;-66
2021/12/03 00:49:41;;;;;;;9.38;1.40;;;;;;;5.79;74.18;100816.63;7387969;19;20022;-70
2021/12/03 00:52:15;;;;;;;5.90;1.20;;;;;;;5.75;70.04;100815.19;7388669;19;20010;-70
2021/12/03 00:54:47;;;;;;;12.98;1.58;;;;;;;5.77;72.99;100815.91;7388013;19;20502;-66
2021/12/03 00:57:27;;;;;;;7.03;1.48;;;;;;;5.81;73.00;100822.53;7388011;19;20411;-70
2021/12/03 00:59:54;;;;;;;5.07;1.98;;;;;;;5.80;72.57;100818.25;7390128;19;20027;-68
2021/12/03 01:02:35;;;;;;;5.93;2.30;;;;;;;5.85;74.20;100816.94;7389731;19;20349;-67
2021/12/03 01:05:19;;;;;;;3.95;0.80;;;;;;;5.83;69.44;100804.97;7389527;19;20023;-68
2021/12/03 01:08:35;;;;;;;6.18;1.00;;;;;;;5.79;70.50;100795.75;7391677;19;20010;-67
2021/12/03 01:11:31;;;;;;;7.22;1.45;;;;;;;5.79;69.99;100795.75;7389125;19;20038;-70
2021/12/03 01:14:04;;;;;;;9.25;2.40;;;;;;;5.76;69.79;100790.75;7388543;19;20011;-68
2021/12/03 01:16:38;;;;;;;6.45;0.90;;;;;;;5.75;69.24;100792.53;7380044;19;20070;-69
2021/12/03 01:19:11;;;;;;;5.78;2.20;;;;;;;5.75;71.00;100805.56;7390272;19;20011;-67
2021/12/03 01:22:03;;;;;;;8.45;1.63;;;;;;;5.77;72.90;100793.25;7397569;19;20032;-66
2021/12/03 01:24:52;;;;;;;6.50;2.33;;;;;;;5.81;73.88;100786.81;7395908;19;20387;-68
2021/12/03 01:27:37;;;;;;;5.32;0.93;;;;;;;5.82;73.38;100785.03;7396904;19;20021;-67
2021/12/03 01:30:09;;;;;;;4.30;1.17;;;;;;;5.82;72.20;100778.03;7396074;19;20035;-66
2021/12/03 01:32:37;;;;;;;3.50;2.00;;;;;;;5.84;72.57;100767.50;7396771;19;20129;-67
2021/12/03 01:35:05;;;;;;;7.97;1.38;;;;;;;5.84;72.02;100763.06;7394307;19;20011;-69
2021/12/03 01:37:32;;;;;;;4.50;1.13;;;;;;;5.81;70.32;100747.66;7398964;19;20490;-68
2021/12/03 01:39:59;;;;;;;5.97;1.10;;;;;;;5.85;70.72;100748.25;7396129;19;20019;-68
2021/12/03 01:42:26;;;;;;;4.65;0.73;;;;;;;5.91;70.21;100750.38;7398085;19;20452;-69
2021/12/03 01:44:53;;;;;;;3.28;1.17;;;;;;;5.92;70.91;100749.44;7400049;19;20010;-68
2021/12/03 01:47:20;;;;;;;7.30;0.85;;;;;;;5.93;70.82;100745.88;7395932;19;20003;-69
2021/12/03 01:49:46;;;;;;;3.83;0.55;;;;;;;5.92;69.64;100734.59;7396837;19;20082;-72
2021/12/03 01:52:14;;;;;;;7.13;1.30;;;;;;;5.90;70.04;100728.66;7396266;19;20010;-69
2021/12/03 01:54:41;;;;;;;4.32;1.17;;;;;;;5.91;69.88;100734.72;7396964;19;20342;-68
2021/12/03 01:57:10;;;;;;;3.38;0.80;;;;;;;5.87;70.47;100725.50;7400658;19;20360;-67
2021/12/03 01:59:37;;;;;;;3.08;0.65;;;;;;;5.90;70.88;100718.22;7394088;19;20083;-66
2021/12/03 02:02:05;;;;;;;3.85;0.60;;;;;;;5.92;71.93;100724.16;7396365;19;20014;-65
2021/12/03 02:04:32;;;;;;;7.93;0.85;;;;;;;5.92;70.16;100723.34;7397024;19;20029;-69
2021/12/03 02:06:59;;;;;;;1.63;0.52;;;;;;;5.92;70.81;100716.34;7396881;19;20097;-67
2021/12/03 02:09:26;;;;;;;5.10;2.08;;;;;;;5.96;69.65;100714.28;7399771;19;20037;-66
2021/12/03 02:11:54;;;;;;;6.32;1.67;;;;;;;5.97;69.30;100714.16;7395738;19;20081;-68
2021/12/03 02:14:21;;;;;;;6.50;2.47;;;;;;;6.02;71.98;100719.00;7399978;19;20082;-68
2021/12/03 02:16:49;;;;;;;2.75;0.80;;;;;;;6.03;72.28;100720.69;7396172;19;20055;-69
2021/12/03 02:19:17;;;;;;;6.88;0.82;;;;;;;6.05;71.69;100712.69;7393118;19;20523;-68
2021/12/03 02:21:44;;;;;;;4.18;0.50;;;;;;;6.09;71.48;100714.94;7394363;19;20007;-69
2021/12/03 02:24:12;;;;;;;5.05;0.70;;;;;;;6.13;72.75;100716.34;7394709;19;20539;-69
2021/12/03 02:26:41;;;;;;;2.85;0.68;;;;;;;6.18;72.10;100711.56;7394941;19;20570;-70
2021/12/03 02:29:08;;;;;;;3.05;0.93;;;;;;;6.18;70.96;100716.78;7395526;19;20074;-68
2021/12/03 02:31:35;;;;;;;2.75;0.47;;;;;;;6.17;69.41;100716.91;7399805;19;20025;-68
2021/12/03 02:34:02;;;;;;;5.35;0.50;;;;;;;6.14;70.32;100715.41;7393817;19;20018;-69
2021/12/03 02:36:29;;;;;;;1.30;0.50;;;;;;;6.11;69.94;100704.34;7396444;19;20074;-67
2021/12/03 02:38:57;;;;;;;2.30;0.30;;;;;;;6.07;70.29;100701.19;7395997;19;20440;-68
2021/12/03 02:41:25;;;;;;;4.55;1.02;;;;;;;6.03;69.82;100698.94;7398184;19;20014;-68
2021/12/03 02:43:53;;;;;;;3.90;0.65;;;;;;;6.10;72.30;100690.47;7396713;19;20066;-66
2021/12/03 02:46:20;;;;;;;2.45;0.38;;;;;;;6.15;72.38;100685.69;7398878;19;20479;-67
2021/12/03 02:48:47;;;;;;;6.07;0.43;;;;;;;6.12;71.76;100672.91;7399252;19;20010;-69
2021/12/03 02:51:14;;;;;;;5.90;1.48;;;;;;;6.12;71.97;100665.06;7394432;19;20014;-69
2021/12/03 02:53:42;;;;;;;2.20;0.60;;;;;;;6.11;71.95;100660.78;7396532;19;20011;-69
2021/12/03 02:56:09;;;;;;;2.13;0.68;;;;;;;6.14;72.03;100646.66;7396558;19;20017;-68
2021/12/03 02:58:36;;;;;;;3.95;1.00;;;;;;;6.16;72.24;100644.72;7396522;19;20014;-69
2021/12/03 03:01:06;;;;;;;2.40;0.30;;;;;;;6.15;71.01;100637.84;7393334;19;20030;-69
2021/12/03 03:03:33;;;;;;;1.30;0.30;;;;;;;6.17;71.27;100634.16;7394850;19;20021;-70
2021/12/03 03:06:04;;;;;;;2.47;0.30;;;;;;;6.20;71.30;100623.44;7393383;19;20011;-66
2021/12/03 03:08:31;;;;;;;4.82;1.23;;;;;;;6.18;70.11;100624.53;7393929;19;20015;-67
2021/12/03 03:11:02;;;;;;;0.88;0.20;;;;;;;6.19;70.81;100627.03;7395640;19;20070;-68
2021/12/03 03:13:31;;;;;;;;;;;;;;;6.20;71.09;100618.22;7395757;19;20021;-69
2021/12/03 03:16:03;;;;;;;3.45;0.60;;;;;;;6.16;71.90;100609.00;7396362;19;20274;-70
2021/12/03 03:18:30;;;;;;;2.27;0.23;;;;;;;6.17;71.02;100607.22;7390417;19;20015;-68
2021/12/03 03:21:00;;;;;;;1.88;0.82;;;;;;;6.15;69.46;100598.66;7395914;19;20010;-68
2021/12/03 03:23:27;;;;;;;1.75;0.30;;;;;;;6.16;71.22;100601.16;7391954;19;20129;-68
2021/12/03 03:25:55;;;;;;;3.70;0.50;;;;;;;6.15;71.21;100601.28;7391282;19;20017;-67
2021/12/03 03:28:24;;;;;;;3.28;0.30;;;;;;;6.17;71.59;100589.75;7392031;19;20347;-68
2021/12/03 03:30:55;;;;;;;1.02;0.30;;;;;;;6.18;71.27;100582.75;7392744;19;20011;-70
2021/12/03 03:33:23;;;;;;;1.83;0.35;;;;;;;6.11;71.73;100582.44;7396842;19;20054;-69
2021/12/03 03:35:50;;;;;;;4.90;1.13;;;;;;;6.13;72.95;100583.16;7396183;19;20094;-69
2021/12/03 03:38:17;;;;;;;2.17;0.35;;;;;;;6.13;74.10;100571.88;7391667;19;20015;-67
2021/12/03 03:40:46;;;;;;;1.40;0.32;;;;;;;6.16;74.71;100561.16;7394373;19;20134;-68
2021/12/03 03:43:14;;;;;;;2.75;0.30;;;;;;;6.13;73.65;100559.66;7395174;19;20011;-66
2021/12/03 03:45:41;;;;;;;6.78;1.02;;;;;;;6.16;74.81;100559.38;7395662;19;20021;-67
2021/12/03 03:48:09;;;;;;;5.07;0.75;;;;;;;6.13;74.77;100553.59;7395531;19;20023;-68
2021/12/03 03:50:37;;;;;;;2.53;0.30;;;;;;;6.11;73.86;100550.28;7392417;19;20323;-67
2021/12/03 03:53:04;;;;;;;2.50;0.55;;;;;;;6.11;73.44;100538.03;7395681;19;20020;-68
2021/12/03 03:55:32;;;;;;;5.32;0.63;;;;;;;6.12;73.69;100537.09;7392553;19;20006;-67
2021/12/03 03:58:01;;;;;;;0.70;0.30;;;;;;;6.11;74.42;100530.22;7395270;19;20009;-67
2021/12/03 04:00:35;;;;;;;1.85;0.50;;;;;;;6.08;73.73;100516.59;7395195;19;20039;-68
2021/12/03 04:03:03;;;;;;;3.40;0.52;;;;;;;6.09;74.95;100519.09;7391736;19;20017;-69
2021/12/03 04:05:44;;;;;;;2.88;0.47;;;;;;;6.06;74.29;100519.34;7392870;19;20019;-70
2021/12/03 04:08:24;;;;;;;6.78;1.23;;;;;;;6.10;77.03;100510.28;7394047;19;20031;-68
2021/12/03 04:10:59;;;;;;;4.35;0.68;;;;;;;6.12;75.60;100505.75;7396057;19;20012;-67
2021/12/03 04:13:27;;;;;;;3.35;0.30;;;;;;;6.11;74.99;100514.53;7391926;19;20082;-68
2021/12/03 04:15:54;;;;;;;3.45;0.50;;;;;;;6.06;74.32;100501.06;7394734;19;20006;-68
2021/12/03 04:18:21;;;;;;;1.80;0.88;;;;;;;6.11;76.35;100498.03;7395504;19;20030;-67
2021/12/03 04:20:48;;;;;;;2.83;0.30;;;;;;;6.13;75.77;100486.53;7392264;19;20336;-67
2021/12/03 04:23:19;;;;;;;1.48;0.13;;;;;;;6.11;74.86;100482.38;7390986;19;20010;-67
2021/12/03 04:25:50;;;;;;;4.50;0.45;;;;;;;6.10;74.09;100483.31;7391102;19;20090;-68
2021/12/03 04:28:21;;;;;;;3.78;0.60;;;;;;;6.13;75.58;100483.09;7394619;19;20499;-68
2021/12/03 04:30:51;;;;;;;2.10;0.50;;;;;;;6.14;74.98;100467.28;7392383;19;20035;-67
2021/12/03 04:33:19;;;;;;;0.28;0.10;;;;;;;6.11;74.69;100464.94;7391019;19;20400;-67
2021/12/03 04:35:46;;;;;;;6.40;1.45;;;;;;;6.15;75.41;100463.69;7393011;19;20073;-67
2021/12/03 04:38:13;;;;;;;3.85;0.40;;;;;;;6.22;77.65;100462.22;7393362;19;20007;-69
2021/12/03 04:40:42;;;;;;;1.45;0.60;;;;;;;6.21;76.68;100457.94;7394622;19;20018;-68
2021/12/03 04:43:09;;;;;;;2.80;0.20;;;;;;;6.21;76.14;100449.28;7391157;19;20041;-69
2021/12/03 04:45:37;;;;;;;1.10;0.20;;;;;;;6.13;74.45;100442.13;7392703;19;20014;-70
2021/12/03 04:48:05;;;;;;;2.83;0.50;;;;;;;6.18;76.00;100442.56;7394014;19;20011;-70
2021/12/03 04:50:38;;;;;;;6.78;0.73;;;;;;;6.18;75.62;100439.09;7393539;19;20010;-66
2021/12/03 04:53:06;;;;;;;;;;;;;;;6.19;76.25;100441.59;7399216;19;20093;-67
2021/12/03 04:55:34;;;;;;;2.35;0.30;;;;;;;6.18;77.15;100434.72;7400505;19;19921;-69
2021/12/03 04:58:01;;;;;;;1.30;0.10;;;;;;;6.21;78.52;100417.94;7399314;19;20094;-68
2021/12/03 05:00:38;;;;;;;2.17;0.20;;;;;;;6.20;77.25;100418.88;7401438;19;20011;-68
2021/12/03 05:03:07;;;;;;;2.47;0.70;;;;;;;6.18;77.20;100420.81;7399155;19;20018;-66
2021/12/03 05:05:36;;;;;;;1.50;0.20;;;;;;;6.21;78.82;100407.47;7401902;19;20038;-68
2021/12/03 05:08:07;;;;;;;2.15;0.43;;;;;;;6.22;78.65;100411.75;7395776;19;20011;-68
2021/12/03 05:10:37;;;;;;;6.90;1.70;;;;;;;6.24;79.29;100402.84;7402311;19;20014;-68
2021/12/03 05:13:35;;;;;;;7.72;2.70;;;;;;;6.31;79.96;100396.09;7397589;19;20016;-66
2021/12/03 05:16:05;;;;;;;1.63;0.38;;;;;;;6.26;79.58;100385.22;7399162;19;20098;-67
2021/12/03 05:18:33;;;;;;;12.75;1.42;;;;;;;6.29;79.99;100378.91;7397615;19;20085;-67
2021/12/03 05:21:03;;;;;;;3.33;0.93;;;;;;;6.25;80.30;100374.91;7396488;19;20608;-67
2021/12/03 05:23:31;;;;;;;1.63;0.28;;;;;;;6.22;80.17;100362.13;7397387;19;20476;-67
2021/12/03 05:26:01;;;;;;;3.03;0.32;;;;;;;6.25;81.01;100348.78;7397421;19;20011;-69
2021/12/03 05:28:28;;;;;;;3.03;0.30;;;;;;;6.26;81.33;100342.59;7397131;19;20014;-69
2021/12/03 05:30:58;;;;;;;1.88;0.28;;;;;;;6.32;82.50;100344.66;7397533;19;20010;-68
2021/12/03 05:33:25;;;;;;;90.03;4.18;;;;;;;6.34;83.17;100333.13;7395308;19;20023;-66
2021/12/03 05:35:52;;;;;;;18.08;1.52;;;;;;;6.38;83.27;100325.84;7400492;19;20515;-66
2021/12/03 05:38:19;;;;;;;1.73;0.20;;;;;;;6.32;83.61;100327.22;7400933;19;20007;-69
2021/12/03 05:40:47;;;;;;;0.88;0.20;;;;;;;6.35;83.72;100321.69;7401436;19;20023;-68
2021/12/03 05:43:16;;;;;;;140.45;6.60;;;;;;;6.38;84.54;100312.78;7401567;19;20007;-69
2021/12/03 05:45:43;;;;;;;297.05;14.00;;;;;;;6.38;86.11;100308.38;7397803;19;20042;-68
2021/12/03 05:48:11;;;;;;;42.70;1.83;;;;;;;6.33;85.94;100307.97;7399565;19;20023;-68
2021/12/03 05:50:38;;;;;;;28.63;1.40;;;;;;;6.35;86.29;100297.38;7397144;19;20034;-68
2021/12/03 05:53:06;;;;;;;3.95;0.47;;;;;;;6.38;86.81;100302.31;7400190;19;20007;-69
2021/12/03 05:55:33;;;;;;;5.00;0.57;;;;;;;6.34;86.74;100293.13;7396205;19;20010;-68
2021/12/03 05:58:00;;;;;;;0.57;0.10;;;;;;;6.33;86.80;100286.25;7398277;19;20035;-67
2021/12/03 06:00:34;;;;;;;23.40;2.08;;;;;;;6.31;86.94;100277.72;7393731;19;20020;-69
2021/12/03 06:03:01;;;;;;;2.03;0.50;;;;;;;6.34;87.84;100280.91;7392713;19;20620;-67
2021/12/03 06:05:29;;;;;;;4.80;0.80;;;;;;;6.35;87.95;100279.06;7396057;19;20003;-67
2021/12/03 06:07:57;;;;;;;173.48;8.10;;;;;;;6.42;88.71;100273.16;7397889;19;20011;-72
2021/12/03 06:10:25;;;;;;;53.90;1.90;;;;;;;6.47;88.69;100266.69;7399285;19;20011;-70
2021/12/03 06:12:53;;;;;;;2.75;0.40;;;;;;;6.45;88.35;100265.03;7399373;19;20070;-67
2021/12/03 06:15:20;;;;;;;76.75;3.42;;;;;;;6.48;88.79;100258.72;7395763;19;20179;-68
2021/12/03 06:17:48;;;;;;;263.48;11.30;;;;;;;6.51;89.43;100261.03;7393986;19;20037;-69
2021/12/03 06:20:16;;;;;;;5.43;0.90;;;;;;;6.56;89.85;100252.78;7393936;19;20078;-69
2021/12/03 06:22:43;;;;;;;13.55;0.65;;;;;;;6.55;89.44;100238.91;7395193;19;20011;-69
2021/12/03 06:25:17;;;;;;;50.10;1.63;;;;;;;6.57;89.78;100226.50;7395062;19;20022;-68
2021/12/03 06:27:45;;;;;;;6.65;0.80;;;;;;;6.59;89.74;100216.75;7398006;19;20190;-66
2021/12/03 06:30:17;;;;;;;1.63;0.30;;;;;;;6.60;89.55;100209.75;7395091;19;20010;-68
2021/12/03 06:32:45;;;;;;;2.38;0.20;;;;;;;6.61;89.43;100203.53;7395258;19;20078;-66
2021/12/03 06:35:14;;;;;;;4.88;1.20;;;;;;;6.64;89.99;100203.25;7391162;19;20078;-67
2021/12/03 06:37:41;;;;;;;135.65;4.53;;;;;;;6.67;90.40;100200.34;7399792;19;20010;-68
2021/12/03 06:40:18;;;;;;;1.20;0.40;;;;;;;6.69;90.73;100204.47;7396134;19;20085;-69
2021/12/03 06:42:45;;;;;;;21.10;1.27;;;;;;;6.73;91.10;100192.75;7395961;19;20034;-69
2021/12/03 06:45:13;;;;;;;8.20;1.13;;;;;;;6.76;90.83;100187.22;7396849;19;20011;-70
2021/12/03 06:47:40;;;;;;;10.40;1.50;;;;;;;6.80;90.43;100179.94;7396904;19;20115;-69
2021/12/03 06:50:12;;;;;;;3.13;0.70;;;;;;;6.82;90.32;100183.22;7393204;19;20015;-68
2021/12/03 06:52:41;;;;;;;3.88;0.90;;;;;;;6.85;90.75;100178.53;7394455;19;20412;-68
2021/12/03 06:55:11;;;;;;;6.00;0.73;;;;;;;6.88;90.86;100177.41;7395722;19;20074;-68
2021/12/03 06:57:41;;;;;;;1.45;0.30;;;;;;;6.90;90.61;100172.88;7394012;19;20007;-67
2021/12/03 07:00:17;;;;;;;4.95;1.55;;;;;;;6.92;90.87;100170.91;7393380;19;20091;-71
2021/12/03 07:02:44;;;;;;;1.48;0.40;;;;;;;6.95;90.15;100169.81;7393914;19;20023;-67
2021/12/03 07:05:13;;;;;;;166.45;9.25;;;;;;;6.95;90.87;100170.66;7396797;19;20086;-68
2021/12/03 07:07:41;;;;;;;4.65;1.17;;;;;;;6.98;91.54;100170.34;7393726;19;20006;-69
2021/12/03 07:10:08;;;;;;;280.35;14.00;;;;;;;7.00;91.39;100171.03;7395607;19;20367;-67
2021/12/03 07:12:35;;;;;;;65.82;5.07;;;;;;;7.05;91.30;100170.59;7394225;19;20023;-69
2021/12/03 07:15:03;;;;;;;2.45;0.45;;;;;;;7.04;91.10;100161.09;7393107;19;20028;-69
2021/12/03 07:17:32;;;;;;;1.77;0.60;;;;;;;7.06;91.25;100153.94;7394421;19;20086;-70
2021/12/03 07:20:04;;;;;;;218.57;10.55;;;;;;;7.10;91.14;100152.66;7391498;19;20035;-68
2021/12/03 07:22:33;;;;;;;2.28;0.60;;;;;;;7.11;91.38;100159.53;7393498;19;20359;-68
2021/12/03 07:24:59;;;;;;;2.80;0.75;;;;;;;7.13;91.54;100157.59;7393973;19;20013;-68
2021/12/03 07:27:27;;;;;;;57.95;4.95;;;;;;;7.18;91.62;100164.03;7397736;19;20011;-71
2021/12/03 07:29:53;;;;;;;8.25;4.35;;;;;;;7.25;92.27;100154.63;7393470;19;20035;-71
2021/12/03 07:32:22;;;;;;;4.78;1.00;;;;;;;7.30;92.84;100155.00;7393115;19;20019;-69
2021/12/03 07:34:51;;;;;;;48.97;5.03;;;;;;;7.37;92.60;100159.63;7395073;19;20318;-69
2021/12/03 07:37:18;;;;;;;19.00;5.32;;;;;;;7.39;92.90;100161.13;7397349;19;20007;-69
2021/12/03 07:39:45;;;;;;;16.23;2.75;;;;;;;7.44;92.94;100147.59;7394073;19;20011;-68
2021/12/03 07:42:13;;;;;;;8.68;3.08;;;;;;;7.50;93.43;100139.16;7393246;19;20042;-68
2021/12/03 07:44:51;;;;;;;5.93;0.88;;;;;;;7.53;93.02;100138.84;7393468;19;20475;-70
2021/12/03 07:47:19;;;;;;;5.22;1.55;;;;;;;7.53;93.31;100137.03;7394777;19;20011;-66
2021/12/03 07:49:48;;;;;;;3.00;0.70;;;;;;;7.60;93.06;100135.47;7392763;19;20014;-69
2021/12/03 07:52:16;;;;;;;2.60;1.13;;;;;;;7.62;93.39;100132.69;7392304;19;20028;-67
2021/12/03 07:54:43;;;;;;;2.25;0.70;;;;;;;7.67;93.72;100133.88;7392542;19;20037;-68
2021/12/03 07:57:11;;;;;;;10.50;1.83;;;;;;;7.76;93.66;100128.72;7392197;19;20010;-68
2021/12/03 07:59:40;;;;;;;4.20;1.02;;;;;;;7.79;94.08;100134.47;7391317;19;20010;-69
2021/12/03 08:02:07;;;;;;;5.88;1.70;;;;;;;7.86;94.27;100126.84;7393437;19;20018;-70
2021/12/03 08:04:35;;;;;;;197.65;8.77;;;;;;;7.89;93.92;100129.16;7393947;19;20023;-68
2021/12/03 08:07:02;;;;;;;2.88;1.50;;;;;;;7.93;94.01;100123.44;7393884;19;20015;-68
2021/12/03 08:09:29;;;;;;;40.97;4.30;;;;;;;7.97;94.13;100116.13;7393263;19;20007;-68
2021/12/03 08:11:56;;;;;;;3.22;1.00;;;;;;;8.03;93.98;100110.25;7394573;19;20604;-70
2021/12/03 08:14:24;;;;;;;2.60;0.95;;;;;;;8.03;93.67;100116.31;7394636;19;20051;-67
2021/12/03 08:16:52;;;;;;;56.95;5.18;;;;;;;8.05;93.78;100105.69;7394931;19;20042;-68
2021/12/03 08:19:19;;;;;;;22.38;2.70;;;;;;;8.08;94.02;100108.81;7391509;19;20078;-69
2021/12/03 08:21:46;;;;;;;6.50;1.50;;;;;;;8.12;93.93;100096.25;7391721;19;20111;-67
2021/12/03 08:24:14;;;;;;;3.20;1.30;;;;;;;8.16;94.18;100090.53;7394926;19;20018;-68
2021/12/03 08:26:41;;;;;;;4.40;1.77;;;;;;;8.17;93.93;100093.97;7391479;19;20031;-67
2021/12/03 08:29:08;;;;;;;8.93;2.38;;;;;;;8.18;94.12;100088.56;7391237;19;20018;-70
2021/12/03 08:31:39;;;;;;;2.88;1.13;;;;;;;8.25;94.23;100096.63;7391470;19;20018;-68
2021/12/03 08:34:06;;;;;;;222.18;12.75;;;;;;;8.29;94.23;100095.34;7389118;19;20019;-69
2021/12/03 08:36:36;;;;;;;11.35;3.63;;;;;;;8.38;94.72;100075.28;7389864;19;20033;-69
2021/12/03 08:39:05;;;;;;;253.02;15.80;;;;;;;8.44;94.82;100082.50;7393455;19;20031;-69
2021/12/03 08:41:33;;;;;;;7.40;1.40;;;;;;;8.55;95.16;100074.34;7391098;19;20083;-70
2021/12/03 08:44:02;;;;;;;9.35;1.10;;;;;;;8.89;98.75;100066.41;7391597;19;20010;-68
2021/12/03 08:49:06;;;;;;;4.13;1.17;;;;;;;9.12;97.24;100082.38;7392079;19;20023;-68
2021/12/03 08:52:20;;;;;;;4.70;1.50;;;;;;;9.07;95.43;100074.97;7391089;19;20083;-67
2021/12/03 08:57:06;;;;;;;83.43;7.93;;;;;;;9.12;95.10;100077.94;7391577;19;20412;-68
2021/12/03 08:59:33;;;;;;;230.35;15.00;;;;;;;9.16;94.84;100081.06;7386284;19;20030;-70
2021/12/03 09:02:00;;;;;;;289.23;18.95;;;;;;;9.18;95.09;100076.47;7389361;19;20049;-71
2021/12/03 09:04:33;;;;;;;17.65;3.25;;;;;;;9.23;95.26;100067.13;7387862;19;20017;-68
2021/12/03 09:07:01;;;;;;;73.38;6.97;;;;;;;9.24;95.16;100057.47;7392308;19;20106;-67
2021/12/03 09:09:28;;;;;;;10.18;3.45;;;;;;;9.26;95.03;100061.53;7389125;19;20011;-70
2021/12/03 09:11:55;;;;;;;3.72;1.02;;;;;;;9.25;94.94;100062.53;7389853;19;20032;-68
2021/12/03 09:19:56;;;;;;;5.22;1.25;;;;;;;9.07;93.12;100066.28;7386951;19;20015;-70
2021/12/03 09:22:49;;;;;;;5.10;1.85;;;;;;;9.04;93.03;100050.88;7387668;19;20006;-68
2021/12/03 09:25:16;;;;;;;7.28;2.17;;;;;;;8.99;92.86;100056.59;7387676;19;20034;-70
2021/12/03 09:28:05;;;;;;;3.13;1.15;;;;;;;8.97;92.81;100054.16;7393295;19;20491;-70
2021/12/03 09:30:37;;;;;;;3.78;0.80;;;;;;;8.94;92.96;100054.44;7388994;19;20066;-69
2021/12/03 09:33:07;;;;;;;5.88;0.88;;;;;;;8.97;93.02;100059.38;7390670;19;20023;-69
2021/12/03 09:35:39;;;;;;;7.15;2.38;;;;;;;8.99;93.11;100046.09;7386750;19;20007;-71
2021/12/03 09:38:06;;;;;;;6.55;1.50;;;;;;;9.04;93.41;100037.75;7395215;19;20014;-68
2021/12/03 09:40:35;;;;;;;425.67;19.48;;;;;;;9.10;93.23;100040.53;7393677;19;20368;-68
2021/12/03 09:43:04;;;;;;;5.43;1.33;;;;;;;9.16;94.03;100026.75;7400136;19;20321;-70
2021/12/03 09:45:38;;;;;;;33.58;4.40;;;;;;;9.22;94.41;100044.50;7398262;19;20019;-72
2021/12/03 09:48:22;;;;;;;51.97;3.08;;;;;;;9.25;94.03;100043.31;7400013;19;20082;-70
2021/12/03 09:50:49;;;;;;;39.10;4.32;;;;;;;9.32;94.64;100044.31;7397869;19;20019;-68
2021/12/03 09:55:47;;;;;;;222.93;13.05;;;;;;;9.43;95.24;100039.56;7401177;19;20073;-67
2021/12/03 09:58:30;;;;;;;65.95;6.10;;;;;;;9.47;94.97;100032.19;7396479;19;20034;-69
2021/12/03 10:01:05;;;;;;;4.43;1.42;;;;;;;9.52;95.34;100029.88;7398688;19;20010;-67
2021/12/03 10:03:54;;;;;;;443.80;23.08;;;;;;;9.59;95.63;100033.50;7395773;19;20011;-67
2021/12/03 10:15:05;;;;;;;17.15;2.58;;;;;;;9.65;94.41;100032.78;7400957;19;19921;-70
2021/12/03 10:35:00;;;;;;;3.60;1.40;;;;;;;9.97;95.10;100000.38;7393238;19;20422;-69
2021/12/03 10:41:10;;;;;;;12.55;4.70;;;;;;;10.08;94.17;99992.13;7397091;19;20007;-69
2021/12/03 10:51:40;;;;;;;4.30;1.85;;;;;;;10.11;94.18;99978.63;7395861;19;20023;-69
2021/12/03 11:46:21;;;;;;;39.95;5.68;;;;;;;10.48;94.66;99950.88;7394498;19;20022;-69
2021/12/03 12:27:24;;;;;;;32.00;8.50;;;;;;;10.75;94.75;99939.03;7393285;19;20339;-69
2021/12/03 12:41:02;;;;;;;8.13;4.18;;;;;;;10.89;92.87;99931.19;7390582;19;20320;-67
2021/12/03 13:09:19;;;;;;;10.18;5.38;;;;;;;11.05;91.62;99904.72;7389619;19;20011;-65
2021/12/03 13:14:59;;;;;;;5.85;3.30;;;;;;;11.14;91.62;99902.84;7400393;19;20023;-69
2021/12/03 13:23:23;;;;;;;6.15;3.08;;;;;;;11.13;90.71;99904.63;7399137;19;20014;-68
2021/12/03 13:26:44;;;;;;;33.58;7.90;;;;;;;11.17;91.45;99894.59;7399422;19;20126;-69
2021/12/03 14:38:13;;;;;;;6.68;2.42;;;;;;;10.99;89.80;99815.94;7395823;19;20551;-69
2021/12/03 14:43:36;;;;;;;8.38;2.88;;;;;;;10.93;89.72;99813.22;7395838;19;20519;-69
2021/12/03 14:47:08;;;;;;;7.43;3.50;;;;;;;10.91;89.91;99815.22;7397506;19;20018;-68
2021/12/03 15:08:23;;;;;;;11.93;3.88;;;;;;;10.87;90.42;99829.75;7399172;19;20406;-67
2021/12/03 15:11:28;;;;;;;8.60;3.63;;;;;;;10.87;90.24;99829.75;7397881;19;20313;-69
2021/12/03 15:27:14;;;;;;;9.68;4.20;;;;;;;10.89;90.50;99780.38;7391873;19;20029;-68
2021/12/03 15:32:54;;;;;;;10.20;3.42;;;;;;;10.87;90.63;99785.00;7392888;19;20364;-69
2021/12/03 15:57:17;;;;;;;15.95;7.03;;;;;;;10.97;90.78;99791.63;7392169;19;20014;-69
2021/12/03 16:10:34;;;;;;;12.95;5.72;;;;;;;10.86;90.59;99778.09;7391763;19;20006;-68
2021/12/03 16:13:23;;;;;;;31.00;7.63;;;;;;;10.87;90.74;99777.13;7393745;19;20006;-68
2021/12/03 16:21:30;;;;;;;9.60;4.30;;;;;;;10.96;91.55;99765.50;7395159;19;20127;-68
2021/12/03 16:27:07;;;;;;;11.77;4.60;;;;;;;10.88;90.65;99776.91;7391352;19;20016;-68
2021/12/03 16:43:44;;;;;;;10.98;4.75;;;;;;;10.92;91.96;99751.06;7390376;19;20018;-70
2021/12/03 16:54:03;;;;;;;12.52;4.13;;;;;;;10.79;90.87;99746.44;7393648;19;20011;-68
2021/12/03 16:56:32;;;;;;;10.00;4.25;;;;;;;10.76;91.18;99738.09;7387583;19;20010;-69
2021/12/03 16:59:00;;;;;;;14.23;5.20;;;;;;;10.72;91.42;99748.94;7394337;19;20006;-67
2021/12/03 17:01:42;;;;;;;11.02;4.53;;;;;;;10.70;91.17;99752.78;7392187;19;20014;-66
2021/12/03 17:49:16;;;;;;;8.93;3.95;;;;;;;10.63;92.26;99700.06;7388567;19;20128;-68
2021/12/03 17:51:51;;;;;;;11.85;4.38;;;;;;;10.60;92.17;99692.53;7386482;19;20020;-66
2021/12/03 17:56:54;;;;;;;36.45;19.67;;;;;;;10.61;92.18;99703.88;7385991;19;20074;-70
2021/12/03 17:59:28;;;;;;;18.58;9.43;;;;;;;10.59;92.00;99690.91;7391382;19;20017;-70
2021/12/03 18:46:07;;;;;;;19.98;8.50;;;;;;;10.72;92.87;99656.88;7395904;19;20013;-67
2021/12/03 18:53:39;;;;;;;15.68;8.43;;;;;;;10.68;92.40;99660.06;7396443;19;20018;-67
2021/12/03 18:56:15;;;;;;;25.00;8.85;;;;;;;10.66;92.57;99659.44;7391201;19;20007;-69
2021/12/03 18:58:42;;;;;;;16.52;7.90;;;;;;;10.66;92.71;99638.41;7390871;19;20007;-67
2021/12/03 19:01:12;;;;;;;18.48;8.43;;;;;;;10.62;92.37;99643.19;7392396;19;20100;-69
2021/12/03 19:08:53;;;;;;;19.67;8.65;;;;;;;10.60;92.62;99641.75;7395100;19;20039;-69
2021/12/03 19:13:50;;;;;;;19.73;8.18;;;;;;;10.58;92.85;99630.59;7393665;19;20052;-67
2021/12/03 19:16:21;;;;;;;19.35;7.35;;;;;;;10.56;92.59;99636.06;7397042;19;20015;-68
2021/12/03 19:18:49;;;;;;;18.50;7.85;;;;;;;10.56;92.77;99627.34;7393155;19;20089;-70
2021/12/03 19:21:21;;;;;;;19.33;7.88;;;;;;;10.56;92.82;99627.34;7391918;19;20010;-66
2021/12/03 19:23:55;;;;;;;15.40;7.38;;;;;;;10.55;92.65;99623.88;7393268;19;20479;-67
2021/12/03 19:26:25;;;;;;;18.92;7.10;;;;;;;10.56;92.83;99624.72;7391621;19;20090;-68
2021/12/03 19:28:53;;;;;;;14.95;7.13;;;;;;;10.57;92.73;99618.44;7391177;19;20031;-69